createdAt,value
2022-10-26T00:01:12.883Z,19.15
2022-10-26T00:03:40.845Z,18.27
2022-10-26T00:06:13.494Z,19.15
2022-10-26T00:08:40.415Z,19.10
2022-10-26T00:11:07.601Z,18.70
2022-10-26T00:13:34.910Z,18.60
2022-10-26T00:16:02.254Z,17.58
2022-10-26T00:18:29.045Z,17.77
2022-10-26T00:20:56.071Z,16.52
2022-10-26T00:23:22.873Z,16.05
2022-10-26T00:25:56.661Z,16.50
2022-10-26T00:28:23.509Z,17.02
2022-10-26T00:30:50.701Z,15.65
2022-10-26T00:33:17.616Z,15.52
2022-10-26T00:35:47.887Z,15.38
2022-10-26T00:38:14.833Z,16.13
2022-10-26T00:40:42.046Z,16.05
2022-10-26T00:43:16.629Z,15.38
2022-10-26T00:45:43.662Z,15.98
2022-10-26T00:48:16.810Z,15.00
2022-10-26T00:50:44.249Z,14.52
2022-10-26T00:53:11.014Z,14.38
2022-10-26T00:55:40.540Z,14.40
2022-10-26T00:58:07.593Z,14.65
2022-10-26T01:00:34.625Z,13.82
2022-10-26T01:03:02.942Z,14.73
2022-10-26T01:05:29.929Z,13.75
2022-10-26T01:07:56.737Z,12.82
2022-10-26T01:10:25.002Z,13.95
2022-10-26T01:12:52.570Z,13.75
2022-10-26T01:15:20.976Z,13.25
2022-10-26T01:17:59.288Z,13.63
2022-10-26T01:20:32.536Z,13.43
2022-10-26T01:23:24.376Z,13.85
2022-10-26T01:26:13.472Z,13.02
2022-10-26T01:29:07.516Z,12.10
2022-10-26T01:31:55.829Z,12.40
2022-10-26T01:34:26.037Z,12.30
2022-10-26T01:36:53.361Z,11.80
2022-10-26T01:39:22.253Z,13.00
2022-10-26T01:41:50.436Z,12.23
2022-10-26T01:44:20.400Z,12.70
2022-10-26T01:46:48.116Z,12.73
2022-10-26T01:49:15.869Z,11.73
2022-10-26T01:51:43.661Z,11.10
2022-10-26T01:54:10.684Z,12.27
2022-10-26T01:56:41.467Z,13.30
2022-10-26T01:59:32.782Z,11.52
2022-10-26T02:02:24.430Z,11.15
2022-10-26T02:05:28.980Z,10.82
2022-10-26T02:08:14.404Z,11.55
2022-10-26T02:13:26.308Z,11.32
2022-10-26T02:16:12.967Z,11.30
2022-10-26T02:19:05.373Z,10.60
2022-10-26T02:21:36.603Z,11.75
2022-10-26T02:24:03.610Z,10.77
2022-10-26T02:26:30.747Z,11.02
2022-10-26T02:29:00.960Z,10.88
2022-10-26T02:31:28.112Z,10.98
2022-10-26T02:33:54.888Z,10.23
2022-10-26T02:36:26.954Z,10.18
2022-10-26T02:38:54.159Z,10.15
2022-10-26T02:41:21.910Z,10.82
2022-10-26T02:43:53.563Z,9.85
2022-10-26T02:46:21.092Z,9.85
2022-10-26T02:48:47.841Z,10.15
2022-10-26T02:51:29.579Z,9.85
2022-10-26T02:54:06.206Z,9.07
2022-10-26T02:56:40.750Z,9.27
2022-10-26T02:59:07.483Z,9.82
2022-10-26T03:01:34.611Z,9.95
2022-10-26T03:04:01.448Z,9.55
2022-10-26T03:06:28.623Z,11.45
2022-10-26T03:08:55.408Z,9.85
2022-10-26T03:11:22.447Z,9.18
2022-10-26T03:13:49.199Z,9.27
2022-10-26T03:16:16.178Z,9.13
2022-10-26T03:18:43.011Z,10.15
2022-10-26T03:21:10.175Z,9.07
2022-10-26T03:23:37.031Z,9.52
2022-10-26T03:26:04.120Z,9.32
2022-10-26T03:28:30.855Z,9.77
2022-10-26T03:30:57.957Z,9.32
2022-10-26T03:33:27.136Z,9.63
2022-10-26T03:35:56.719Z,10.68
2022-10-26T03:38:23.578Z,9.73
2022-10-26T03:40:50.554Z,9.00
2022-10-26T03:43:17.334Z,8.80
2022-10-26T03:45:44.382Z,8.77
2022-10-26T03:48:11.171Z,8.95
2022-10-26T03:50:38.413Z,8.95
2022-10-26T03:53:05.296Z,8.52
2022-10-26T03:55:32.333Z,9.20
2022-10-26T03:57:59.089Z,8.80
2022-10-26T04:00:26.117Z,8.25
2022-10-26T04:02:59.747Z,8.98
2022-10-26T04:05:27.832Z,9.18
2022-10-26T04:07:59.171Z,8.40
2022-10-26T04:10:27.753Z,8.95
2022-10-26T04:12:54.939Z,10.07
2022-10-26T04:15:22.093Z,8.98
2022-10-26T04:17:49.201Z,8.20
2022-10-26T04:20:16.442Z,8.75
2022-10-26T04:22:43.226Z,8.65
2022-10-26T04:25:11.409Z,8.43
2022-10-26T04:27:38.494Z,8.98
2022-10-26T04:30:09.866Z,9.00
2022-10-26T04:32:36.673Z,9.65
2022-10-26T04:35:03.810Z,9.00
2022-10-26T04:37:30.593Z,9.57
2022-10-26T04:39:57.643Z,8.80
2022-10-26T04:42:24.496Z,8.93
2022-10-26T04:44:51.478Z,9.48
2022-10-26T04:47:18.245Z,9.75
2022-10-26T04:49:45.399Z,9.45
2022-10-26T04:52:12.269Z,9.63
2022-10-26T04:54:39.281Z,8.15
2022-10-26T04:57:06.189Z,9.15
2022-10-26T04:59:33.185Z,8.95
2022-10-26T05:02:00.089Z,9.10
2022-10-26T05:04:27.181Z,8.52
2022-10-26T05:06:54.037Z,9.23
2022-10-26T05:09:21.001Z,9.55
2022-10-26T05:11:47.846Z,9.40
2022-10-26T05:14:14.841Z,8.85
2022-10-26T05:16:41.648Z,8.68
2022-10-26T05:19:08.701Z,8.23
2022-10-26T05:21:35.526Z,8.88
2022-10-26T05:24:02.641Z,8.75
2022-10-26T05:26:29.742Z,8.73
2022-10-26T05:28:56.817Z,8.77
2022-10-26T05:31:23.760Z,9.02
2022-10-26T05:33:51.256Z,8.25
2022-10-26T05:36:18.724Z,8.43
2022-10-26T05:38:46.121Z,9.07
2022-10-26T05:41:13.036Z,8.25
2022-10-26T05:43:40.074Z,8.20
2022-10-26T05:46:06.861Z,8.23
2022-10-26T05:48:33.879Z,8.27
2022-10-26T05:51:01.414Z,8.75
2022-10-26T05:53:28.697Z,9.27
2022-10-26T05:55:56.539Z,8.45
2022-10-26T05:58:23.888Z,8.35
2022-10-26T06:00:56.825Z,8.60
2022-10-26T06:03:53.564Z,8.07
2022-10-26T06:06:21.280Z,8.95
2022-10-26T06:08:48.523Z,8.40
2022-10-26T06:11:15.512Z,8.60
2022-10-26T06:13:42.680Z,9.25
2022-10-26T06:16:22.408Z,8.95
2022-10-26T06:19:21.592Z,8.85
2022-10-26T06:21:55.789Z,8.60
2022-10-26T06:24:29.267Z,9.73
2022-10-26T06:26:56.037Z,9.38
2022-10-26T06:29:51.113Z,9.70
2022-10-26T06:32:17.937Z,9.75
2022-10-26T06:34:47.052Z,9.45
2022-10-26T06:37:14.068Z,9.82
2022-10-26T06:39:48.880Z,10.90
2022-10-26T06:42:18.507Z,9.55
2022-10-26T06:44:45.795Z,9.80
2022-10-26T06:47:31.238Z,9.80
2022-10-26T06:52:46.734Z,10.55
2022-10-26T06:55:14.674Z,11.38
2022-10-26T06:57:41.482Z,14.45
2022-10-26T07:00:13.432Z,13.30
2022-10-26T07:02:40.206Z,13.15
2022-10-26T07:05:12.774Z,12.68
2022-10-26T07:07:43.783Z,12.20
2022-10-26T07:10:11.207Z,12.05
2022-10-26T07:12:38.234Z,11.20
2022-10-26T07:15:06.328Z,11.68
2022-10-26T07:17:46.484Z,11.20
2022-10-26T07:20:14.272Z,12.02
2022-10-26T07:22:42.775Z,10.65
2022-10-26T07:25:10.117Z,10.95
2022-10-26T07:27:36.885Z,11.85
2022-10-26T07:30:04.836Z,11.13
2022-10-26T07:32:31.640Z,11.60
2022-10-26T07:34:58.672Z,11.60
2022-10-26T07:37:25.465Z,12.55
2022-10-26T07:39:52.434Z,11.35
2022-10-26T07:42:19.198Z,11.90
2022-10-26T07:44:46.339Z,12.23
2022-10-26T07:47:13.130Z,10.93
2022-10-26T07:49:40.462Z,11.55
2022-10-26T07:52:07.286Z,11.30
2022-10-26T07:54:34.277Z,11.30
2022-10-26T07:57:01.188Z,12.30
2022-10-26T07:59:28.351Z,11.95
2022-10-26T08:01:55.150Z,12.23
2022-10-26T08:04:22.235Z,11.80
2022-10-26T08:06:49.025Z,12.32
2022-10-26T08:09:16.030Z,11.93
2022-10-26T08:11:42.805Z,12.68
2022-10-26T08:14:10.817Z,11.60
2022-10-26T08:16:40.251Z,11.57
2022-10-26T08:19:07.536Z,12.80
2022-10-26T08:21:40.119Z,11.77
2022-10-26T08:24:08.177Z,11.73
2022-10-26T08:26:34.948Z,11.30
2022-10-26T08:29:02.076Z,12.63
2022-10-26T08:31:28.915Z,11.32
2022-10-26T08:33:55.899Z,11.70
2022-10-26T08:36:26.327Z,10.90
2022-10-26T08:38:53.481Z,11.88
2022-10-26T08:41:21.895Z,11.02
2022-10-26T08:43:57.167Z,11.40
2022-10-26T08:46:29.947Z,11.48
2022-10-26T08:49:24.754Z,10.35
2022-10-26T08:51:53.383Z,10.65
2022-10-26T08:54:28.456Z,10.52
2022-10-26T08:57:03.083Z,10.80
2022-10-26T08:59:39.263Z,9.50
2022-10-26T09:02:12.771Z,9.73
2022-10-26T09:04:40.121Z,9.80
2022-10-26T09:07:28.194Z,9.55
2022-10-26T09:10:13.572Z,10.13
2022-10-26T09:12:49.953Z,8.68
2022-10-26T09:15:29.343Z,8.77
2022-10-26T09:18:13.974Z,8.57
2022-10-26T09:20:43.874Z,8.70
2022-10-26T09:23:38.030Z,9.10
2022-10-26T09:26:06.352Z,8.90
2022-10-26T09:28:34.962Z,8.48
2022-10-26T09:31:02.485Z,7.97
2022-10-26T09:33:29.420Z,7.20
2022-10-26T09:36:01.518Z,7.55
2022-10-26T09:38:47.830Z,7.28
2022-10-26T09:41:21.506Z,7.03
2022-10-26T09:43:55.594Z,6.70
2022-10-26T09:46:26.298Z,6.65
2022-10-26T09:48:56.120Z,7.47
2022-10-26T09:51:24.005Z,6.72
2022-10-26T09:53:50.789Z,6.78
2022-10-26T09:56:17.769Z,6.20
2022-10-26T09:58:52.755Z,6.35
2022-10-26T10:03:49.659Z,5.78
2022-10-26T10:06:20.109Z,6.03
2022-10-26T10:09:11.756Z,6.35
2022-10-26T10:11:54.820Z,5.82
2022-10-26T10:14:23.401Z,5.82
2022-10-26T10:16:58.125Z,5.90
2022-10-26T10:19:35.228Z,5.53
2022-10-26T10:22:09.897Z,5.63
2022-10-26T10:24:37.279Z,5.85
2022-10-26T10:27:15.146Z,5.30
2022-10-26T10:29:51.847Z,5.25
2022-10-26T10:32:23.310Z,5.35
2022-10-26T10:34:50.882Z,5.45
2022-10-26T10:37:46.938Z,5.93
2022-10-26T10:40:21.491Z,4.60
2022-10-26T10:42:49.033Z,5.38
2022-10-26T10:45:23.763Z,5.80
2022-10-26T10:48:06.260Z,4.55
2022-10-26T10:50:33.395Z,4.85
2022-10-26T10:53:20.078Z,4.53
2022-10-26T10:56:18.435Z,4.40
2022-10-26T10:59:00.745Z,4.00
2022-10-26T11:01:35.605Z,4.82
2022-10-26T11:04:55.884Z,4.93
2022-10-26T11:07:22.641Z,4.10
2022-10-26T11:09:49.618Z,4.13
2022-10-26T11:12:23.656Z,4.18
2022-10-26T11:15:12.924Z,4.13
2022-10-26T11:17:52.282Z,3.88
2022-10-26T11:20:21.200Z,3.72
2022-10-26T11:23:00.347Z,4.22
2022-10-26T11:25:29.871Z,4.10
2022-10-26T11:27:59.553Z,4.28
2022-10-26T11:30:26.816Z,4.38
2022-10-26T11:32:56.876Z,4.38
2022-10-26T11:35:32.972Z,3.58
2022-10-26T11:38:23.948Z,3.60
2022-10-26T11:41:19.591Z,4.03
2022-10-26T11:43:48.063Z,3.72
2022-10-26T11:47:08.539Z,3.65
2022-10-26T11:49:44.383Z,3.17
2022-10-26T11:52:24.350Z,3.58
2022-10-26T11:54:55.777Z,3.00
2022-10-26T11:57:23.557Z,3.35
2022-10-26T11:59:52.602Z,3.20
2022-10-26T12:02:26.367Z,2.80
2022-10-26T12:04:56.726Z,3.45
2022-10-26T12:07:35.856Z,2.80
2022-10-26T12:10:03.135Z,3.00
2022-10-26T12:12:37.361Z,3.25
2022-10-26T12:16:02.221Z,2.97
2022-10-26T12:18:54.919Z,3.03
2022-10-26T12:21:25.133Z,2.63
2022-10-26T12:23:56.277Z,2.95
2022-10-26T12:26:23.037Z,3.28
2022-10-26T12:29:14.131Z,2.85
2022-10-26T12:31:42.594Z,2.60
2022-10-26T12:34:14.277Z,2.50
2022-10-26T12:36:56.552Z,3.00
2022-10-26T12:39:29.573Z,2.65
2022-10-26T12:42:10.529Z,2.35
2022-10-26T12:44:45.659Z,2.85
2022-10-26T12:47:27.654Z,2.75
2022-10-26T12:50:06.847Z,2.22
2022-10-26T12:52:49.171Z,2.53
2022-10-26T12:55:46.922Z,2.28
2022-10-26T12:58:27.325Z,2.13
2022-10-26T13:01:00.603Z,2.20
2022-10-26T13:03:27.356Z,2.25
2022-10-26T13:06:06.429Z,2.00
2022-10-26T13:08:40.925Z,1.58
2022-10-26T13:11:19.184Z,2.15
2022-10-26T13:13:52.212Z,2.15
2022-10-26T13:16:19.244Z,1.60
2022-10-26T13:18:48.145Z,1.38
2022-10-26T13:21:18.952Z,1.85
2022-10-26T13:23:47.474Z,1.40
2022-10-26T13:26:18.824Z,1.90
2022-10-26T13:28:50.661Z,1.50
2022-10-26T13:31:32.901Z,1.70
2022-10-26T13:34:19.543Z,1.70
2022-10-26T13:37:05.424Z,1.80
2022-10-26T13:39:37.592Z,1.60
2022-10-26T13:42:05.315Z,1.75
2022-10-26T13:44:53.998Z,1.67
2022-10-26T13:47:24.029Z,1.42
2022-10-26T13:49:52.190Z,1.30
2022-10-26T13:52:26.109Z,1.42
2022-10-26T13:54:57.294Z,1.40
2022-10-26T13:57:34.138Z,1.38
2022-10-26T14:00:03.958Z,1.30
2022-10-26T14:02:31.598Z,1.67
2022-10-26T14:05:05.143Z,1.95
2022-10-26T14:07:55.622Z,2.85
2022-10-26T14:10:28.993Z,2.08
2022-10-26T14:12:56.701Z,1.98
2022-10-26T14:15:25.218Z,2.08
2022-10-26T14:17:52.971Z,2.47
2022-10-26T14:20:21.821Z,2.30
2022-10-26T14:22:48.853Z,2.17
2022-10-26T14:25:23.516Z,2.50
2022-10-26T14:27:58.263Z,2.38
2022-10-26T14:30:29.905Z,2.25
2022-10-26T14:32:57.366Z,2.47
2022-10-26T14:35:26.113Z,2.63
2022-10-26T14:37:56.136Z,3.28
2022-10-26T14:40:25.204Z,2.60
2022-10-26T14:42:54.823Z,2.72
2022-10-26T14:45:48.223Z,2.58
2022-10-26T14:48:24.278Z,2.50
2022-10-26T14:50:59.346Z,2.63
2022-10-26T14:53:41.781Z,2.85
2022-10-26T14:56:28.958Z,2.83
2022-10-26T14:58:56.211Z,2.85
2022-10-26T15:01:23.230Z,3.35
2022-10-26T15:04:01.507Z,3.90
2022-10-26T15:06:28.699Z,3.88
2022-10-26T15:08:59.766Z,3.85
2022-10-26T15:11:27.252Z,4.35
2022-10-26T15:13:54.376Z,4.28
2022-10-26T15:16:24.927Z,3.75
2022-10-26T15:18:53.959Z,4.25
2022-10-26T15:21:30.624Z,3.42
2022-10-26T15:23:57.536Z,3.90
2022-10-26T15:26:24.728Z,3.72
2022-10-26T15:28:52.840Z,3.55
2022-10-26T15:31:19.953Z,4.20
2022-10-26T15:33:50.740Z,3.25
2022-10-26T15:36:18.764Z,4.15
2022-10-26T15:38:46.239Z,4.40
2022-10-26T15:41:32.794Z,4.95
2022-10-26T15:44:05.926Z,5.63
2022-10-26T15:46:34.379Z,4.82
2022-10-26T15:49:03.395Z,4.70
2022-10-26T15:51:30.421Z,7.00
2022-10-26T15:53:58.550Z,7.70
2022-10-26T15:56:25.887Z,7.78
2022-10-26T15:58:53.155Z,7.78
2022-10-26T16:01:21.881Z,8.45
2022-10-26T16:03:49.179Z,9.38
2022-10-26T16:06:17.037Z,10.52
2022-10-26T16:08:46.270Z,9.98
2022-10-26T16:11:13.024Z,13.60
2022-10-26T16:13:40.071Z,15.65
2022-10-26T16:16:12.267Z,18.30
2022-10-26T16:18:39.299Z,17.85
2022-10-26T16:21:06.109Z,18.60
2022-10-26T16:23:33.132Z,18.00
2022-10-26T16:25:59.899Z,17.50
2022-10-26T16:28:26.902Z,17.55
2022-10-26T16:31:01.336Z,17.10
2022-10-26T16:33:28.537Z,16.58
2022-10-26T16:35:59.336Z,17.25
2022-10-26T16:38:26.607Z,17.05
2022-10-26T16:41:08.597Z,17.45
2022-10-26T16:43:40.325Z,16.23
2022-10-26T16:46:15.486Z,15.88
2022-10-26T16:48:44.106Z,17.20
2022-10-26T16:51:12.609Z,16.58
2022-10-26T16:53:39.853Z,18.00
2022-10-26T16:56:14.288Z,17.98
2022-10-26T16:58:41.549Z,18.23
2022-10-26T17:01:08.543Z,17.38
2022-10-26T17:03:35.715Z,16.98
2022-10-26T17:06:04.145Z,18.58
2022-10-26T17:08:31.987Z,18.42
2022-10-26T17:11:06.184Z,18.80
2022-10-26T17:13:33.197Z,18.55
2022-10-26T17:16:07.532Z,18.90
2022-10-26T17:18:34.559Z,19.98
2022-10-26T17:21:01.288Z,19.85
2022-10-26T17:23:28.371Z,19.55
2022-10-26T17:25:55.164Z,19.33
2022-10-26T17:28:22.228Z,19.65
2022-10-26T17:30:49.083Z,22.10
2022-10-26T17:33:16.119Z,21.52
2022-10-26T17:35:42.908Z,20.90
2022-10-26T17:38:09.871Z,22.23
2022-10-26T17:40:36.611Z,23.30
2022-10-26T17:43:03.646Z,23.33
2022-10-26T17:45:30.393Z,23.25
2022-10-26T17:47:57.371Z,23.67
2022-10-26T17:50:24.126Z,23.27
2022-10-26T17:52:51.123Z,22.40
2022-10-26T17:55:17.891Z,22.92
2022-10-26T17:57:44.915Z,23.60
2022-10-26T18:00:12.531Z,24.52
2022-10-26T18:02:40.194Z,24.17
2022-10-26T18:05:07.979Z,24.48
2022-10-26T18:07:35.074Z,24.95
2022-10-26T18:10:14.094Z,24.83
2022-10-26T18:12:49.213Z,24.52
2022-10-26T18:15:16.422Z,26.10
2022-10-26T18:17:45.181Z,25.27
2022-10-26T18:20:11.972Z,25.50
2022-10-26T18:22:38.993Z,25.08
2022-10-26T18:25:05.980Z,27.45
2022-10-26T18:27:32.938Z,28.48
2022-10-26T18:29:59.686Z,28.70
2022-10-26T18:32:27.502Z,28.65
2022-10-26T18:34:55.285Z,28.00
2022-10-26T18:37:22.551Z,28.88
2022-10-26T18:39:49.327Z,29.20
2022-10-26T18:42:16.403Z,28.98
2022-10-26T18:47:42.783Z,27.90
2022-10-26T18:50:10.122Z,29.70
2022-10-26T18:52:37.030Z,27.98
2022-10-26T18:55:05.199Z,28.58
2022-10-26T18:57:31.961Z,28.88
2022-10-26T18:59:58.965Z,29.27
2022-10-26T19:02:25.713Z,30.27
2022-10-26T19:04:53.716Z,30.55
2022-10-26T19:07:20.504Z,29.73
2022-10-26T19:09:47.594Z,29.23
2022-10-26T19:12:14.328Z,30.45
2022-10-26T19:14:41.313Z,28.65
2022-10-26T19:17:08.082Z,31.20
2022-10-26T19:19:35.098Z,31.02
2022-10-26T19:22:01.897Z,29.92
2022-10-26T19:24:29.045Z,28.88
2022-10-26T19:26:56.646Z,29.67
2022-10-26T19:29:23.683Z,29.85
2022-10-26T19:31:51.979Z,27.45
2022-10-26T19:34:19.087Z,27.70
2022-10-26T19:36:47.127Z,27.13
2022-10-26T19:39:17.611Z,27.58
2022-10-26T19:41:45.237Z,27.95
2022-10-26T19:44:12.555Z,27.25
2022-10-26T19:46:39.679Z,27.52
2022-10-26T19:49:06.990Z,26.77
2022-10-26T19:51:33.805Z,27.00
2022-10-26T19:54:04.007Z,25.10
2022-10-26T19:56:34.592Z,26.35
2022-10-26T19:59:01.757Z,26.23
2022-10-26T20:01:28.682Z,25.35
2022-10-26T20:03:55.744Z,25.95
2022-10-26T20:06:22.564Z,24.48
2022-10-26T20:08:49.825Z,25.10
2022-10-26T20:11:17.774Z,24.67
2022-10-26T20:13:45.404Z,24.83
2022-10-26T20:16:12.355Z,24.55
2022-10-26T20:18:43.966Z,25.08
2022-10-26T20:21:14.519Z,24.70
2022-10-26T20:23:41.848Z,24.48
2022-10-26T20:26:08.634Z,24.42
2022-10-26T20:28:35.712Z,25.13
2022-10-26T20:31:02.492Z,24.50
2022-10-26T20:33:29.496Z,26.42
2022-10-26T20:35:59.809Z,26.70
2022-10-26T20:38:27.225Z,27.17
2022-10-26T20:40:58.321Z,27.42
2022-10-26T20:43:26.264Z,26.23
2022-10-26T20:45:53.457Z,28.73
2022-10-26T20:48:20.692Z,29.25
2022-10-26T20:50:55.255Z,28.52
2022-10-26T20:53:53.623Z,26.58
2022-10-26T20:56:23.806Z,26.20
2022-10-26T20:58:55.828Z,27.73
2022-10-26T21:01:25.507Z,27.88
2022-10-26T21:03:53.355Z,26.40
2022-10-26T21:06:20.230Z,27.05
2022-10-26T21:08:51.055Z,27.45
2022-10-26T21:11:18.339Z,27.05
2022-10-26T21:13:45.999Z,26.58
2022-10-26T21:16:12.826Z,26.88
2022-10-26T21:18:39.867Z,25.65
2022-10-26T21:21:06.779Z,26.13
2022-10-26T21:23:35.450Z,25.98
2022-10-26T21:26:02.473Z,22.92
2022-10-26T21:28:42.831Z,24.38
2022-10-26T21:31:10.545Z,25.35
2022-10-26T21:33:37.881Z,24.17
2022-10-26T21:36:06.066Z,23.00
2022-10-26T21:38:33.217Z,23.38
2022-10-26T21:41:16.593Z,24.65
2022-10-26T21:43:46.043Z,23.80
2022-10-26T21:46:12.849Z,23.35
2022-10-26T21:48:42.999Z,22.38
2022-10-26T21:51:17.113Z,22.35
2022-10-26T21:53:44.277Z,21.43
2022-10-26T21:56:16.085Z,22.90
2022-10-26T21:58:43.131Z,22.10
2022-10-26T22:01:10.780Z,21.70
2022-10-26T22:03:38.151Z,21.95
2022-10-26T22:06:05.217Z,21.67
2022-10-26T22:08:32.261Z,21.20
2022-10-26T22:10:59.084Z,22.08
2022-10-26T22:13:26.177Z,20.83
2022-10-26T22:16:10.225Z,19.52
2022-10-26T22:18:38.129Z,19.85
2022-10-26T22:21:05.089Z,19.35
2022-10-26T22:23:33.992Z,19.30
2022-10-26T22:26:11.445Z,20.17
2022-10-26T22:28:42.447Z,19.13
2022-10-26T22:31:14.655Z,18.05
2022-10-26T22:33:42.161Z,19.30
2022-10-26T22:36:13.812Z,19.58
2022-10-26T22:38:40.950Z,17.98
2022-10-26T22:41:08.013Z,18.92
2022-10-26T22:43:35.545Z,16.90
2022-10-26T22:46:06.952Z,17.83
2022-10-26T22:48:34.196Z,19.10
2022-10-26T22:51:19.932Z,18.83
2022-10-26T22:53:47.228Z,17.90
2022-10-26T22:56:14.169Z,17.83
2022-10-26T22:58:41.270Z,17.83
2022-10-26T23:01:08.096Z,16.95
2022-10-26T23:03:35.199Z,16.30
2022-10-26T23:06:02.295Z,17.30
2022-10-26T23:08:29.476Z,17.10
2022-10-26T23:11:00.225Z,16.00
2022-10-26T23:13:27.715Z,16.08
2022-10-26T23:15:54.837Z,18.45
2022-10-26T23:18:22.574Z,16.73
2022-10-26T23:20:50.228Z,16.83
2022-10-26T23:23:17.860Z,16.17
2022-10-26T23:25:44.757Z,16.25
2022-10-26T23:28:12.025Z,16.02
2022-10-26T23:30:38.896Z,15.80
2022-10-26T23:33:05.963Z,16.30
2022-10-26T23:35:32.819Z,16.38
2022-10-26T23:37:59.936Z,14.85
2022-10-26T23:40:27.282Z,15.77
2022-10-26T23:42:54.369Z,16.08
2022-10-26T23:45:21.598Z,15.07
2022-10-26T23:47:48.959Z,15.63
2022-10-26T23:50:16.150Z,14.85
2022-10-26T23:52:49.735Z,15.48
2022-10-26T23:55:16.761Z,14.35
2022-10-26T23:57:43.764Z,14.73
